Time;durP1;ratioP1;P1;durP2;ratioP2;P2;SDS_P1;SDS_P2;PMS_P1;PMS_P2;Temp;Humidity;BMP_temperature;BMP_pressure;BME280_temperature;BME280_humidity;BME280_pressure;Samples;Min_cycle;Max_cycle;Signal;HPM_P1;HPM_P2
2021/03/06 00:02:16;;;;;;;9.90;6.43;;;;;;;-1.25;66.11;102036.19;5050548;28;20486;-74
2021/03/06 00:04:46;;;;;;;7.13;5.93;;;;;;;-1.26;65.82;102034.50;5051152;28;20049;-74
2021/03/06 00:07:13;;;;;;;9.75;6.10;;;;;;;-1.27;65.78;102030.06;5051235;28;20048;-74
2021/03/06 00:09:40;;;;;;;8.73;5.85;;;;;;;-1.28;65.79;102032.97;5051604;28;20045;-74
2021/03/06 00:12:07;;;;;;;13.93;6.78;;;;;;;-1.33;65.61;102036.31;5051826;28;20500;-74
2021/03/06 00:14:34;;;;;;;8.15;5.63;;;;;;;-1.43;65.42;102035.78;5055261;28;20057;-74
2021/03/06 00:17:01;;;;;;;8.88;6.22;;;;;;;-1.47;65.56;102037.22;5054279;28;20470;-74
2021/03/06 00:19:29;;;;;;;8.80;6.30;;;;;;;-1.48;65.93;102039.13;5055270;28;20091;-75
2021/03/06 00:21:56;;;;;;;11.38;7.20;;;;;;;-1.45;65.58;102049.69;5054882;28;20057;-74
2021/03/06 00:24:23;;;;;;;9.65;6.22;;;;;;;-1.46;65.42;102050.69;5055423;28;20506;-74
2021/03/06 00:26:50;;;;;;;9.68;6.68;;;;;;;-1.47;65.81;102050.88;5054273;28;20053;-74
2021/03/06 00:29:17;;;;;;;9.88;6.20;;;;;;;-1.45;66.20;102044.22;5055526;28;20049;-74
2021/03/06 00:31:44;;;;;;;9.73;6.40;;;;;;;-1.44;65.81;102051.34;5052983;28;20056;-74
2021/03/06 00:34:11;;;;;;;8.25;5.75;;;;;;;-1.48;65.92;102055.53;5037525;28;20060;-74
2021/03/06 00:36:39;;;;;;;9.50;5.75;;;;;;;-1.51;65.99;102060.50;5036005;28;20052;-74
2021/03/06 00:39:06;;;;;;;8.38;6.55;;;;;;;-1.55;65.87;102062.81;5035393;28;20057;-74
2021/03/06 00:41:34;;;;;;;7.60;5.90;;;;;;;-1.53;66.39;102063.47;5048698;28;20060;-74
2021/03/06 00:44:01;;;;;;;8.45;5.72;;;;;;;-1.55;66.45;102056.50;5053123;28;20053;-74
2021/03/06 00:46:28;;;;;;;10.05;5.43;;;;;;;-1.55;66.45;102059.25;5054823;28;20052;-74
2021/03/06 00:48:55;;;;;;;9.32;6.35;;;;;;;-1.56;66.25;102055.66;5054760;28;20076;-74
2021/03/06 00:51:23;;;;;;;7.55;5.72;;;;;;;-1.55;66.98;102051.06;5053810;28;20052;-74
2021/03/06 00:53:50;;;;;;;9.35;6.13;;;;;;;-1.56;66.72;102050.19;5053892;28;20048;-74
2021/03/06 00:56:17;;;;;;;9.32;5.25;;;;;;;-1.58;66.52;102049.53;5053756;28;20052;-74
2021/03/06 00:58:44;;;;;;;12.05;6.28;;;;;;;-1.62;66.82;102045.50;5048200;28;20387;-74
2021/03/06 01:01:12;;;;;;;9.20;5.75;;;;;;;-1.64;66.61;102047.56;5042390;28;20041;-74
2021/03/06 01:03:39;;;;;;;10.30;5.88;;;;;;;-1.64;66.93;102045.72;5034929;28;20061;-74
2021/03/06 01:06:07;;;;;;;8.85;6.13;;;;;;;-1.69;66.58;102039.97;5051113;28;20057;-74
2021/03/06 01:08:35;;;;;;;10.43;6.57;;;;;;;-1.71;66.86;102042.03;5035968;28;20541;-74
2021/03/06 01:11:04;;;;;;;8.50;6.22;;;;;;;-1.70;66.59;102046.50;5053481;28;20405;-74
2021/03/06 01:13:31;;;;;;;8.02;5.75;;;;;;;-1.72;66.66;102042.22;5053889;28;20052;-74
2021/03/06 01:15:58;;;;;;;8.52;6.28;;;;;;;-1.73;66.99;102041.41;5052010;28;20057;-74
2021/03/06 01:18:25;;;;;;;12.10;6.35;;;;;;;-1.72;66.92;102037.63;5053111;28;20414;-74
2021/03/06 01:20:52;;;;;;;10.15;6.28;;;;;;;-1.75;67.04;102034.44;5047216;28;20054;-74
2021/03/06 01:23:19;;;;;;;9.30;6.28;;;;;;;-1.73;66.77;102033.19;5033662;28;20057;-74
2021/03/06 01:25:46;;;;;;;9.80;6.38;;;;;;;-1.77;66.67;102028.31;5054730;28;20057;-74
2021/03/06 01:28:13;;;;;;;9.80;6.45;;;;;;;-1.79;67.03;102038.59;5041247;28;20053;-74
2021/03/06 01:30:40;;;;;;;8.77;6.55;;;;;;;-1.84;66.84;102036.44;5036884;28;20056;-74
2021/03/06 01:33:08;;;;;;;10.52;6.53;;;;;;;-1.87;66.43;102024.03;5052536;28;20057;-74
2021/03/06 01:35:35;;;;;;;10.85;6.97;;;;;;;-1.90;66.67;102029.88;5053306;28;20049;-74
2021/03/06 01:38:02;;;;;;;10.73;7.47;;;;;;;-1.96;66.47;102027.91;5053509;28;20067;-74
2021/03/06 01:40:31;;;;;;;10.00;5.90;;;;;;;-1.96;66.88;102021.59;5052885;28;20057;-74
2021/03/06 01:43:00;;;;;;;9.95;6.15;;;;;;;-1.97;67.08;102028.13;5052225;28;20068;-74
2021/03/06 01:45:28;;;;;;;10.63;6.93;;;;;;;-1.92;66.91;102028.38;5053345;28;20418;-74
2021/03/06 01:47:55;;;;;;;9.40;6.45;;;;;;;-1.99;66.96;102030.19;5053020;28;20060;-74
2021/03/06 01:50:26;;;;;;;9.10;6.63;;;;;;;-1.97;66.74;102033.59;5051640;28;20053;-74
2021/03/06 01:52:53;;;;;;;10.60;6.72;;;;;;;-1.99;66.59;102020.13;5052946;28;20055;-74
2021/03/06 01:55:23;;;;;;;8.93;6.60;;;;;;;-1.97;66.54;102028.13;5052735;28;20064;-74
2021/03/06 01:57:51;;;;;;;11.18;6.45;;;;;;;-2.03;66.58;102032.47;5052884;28;20053;-74
2021/03/06 02:00:20;;;;;;;11.02;7.30;;;;;;;-2.06;67.08;102028.25;5053421;28;20055;-74
2021/03/06 02:02:49;;;;;;;11.18;6.72;;;;;;;-2.02;66.83;102030.56;5048580;28;20053;-74
2021/03/06 02:05:16;;;;;;;10.00;6.63;;;;;;;-2.03;67.01;102029.72;5042971;28;20076;-74
2021/03/06 02:07:43;;;;;;;10.38;6.65;;;;;;;-2.04;67.02;102033.47;5048253;28;20056;-74
2021/03/06 02:10:13;;;;;;;9.70;7.35;;;;;;;-2.04;67.36;102028.03;5045116;28;20064;-74
2021/03/06 02:12:52;;;;;;;11.98;7.20;;;;;;;-2.02;67.52;102030.56;5053229;28;20068;-73
2021/03/06 02:15:33;;;;;;;9.40;6.93;;;;;;;-2.03;67.55;102026.16;5053413;28;20545;-74
2021/03/06 02:18:05;;;;;;;10.30;6.78;;;;;;;-2.04;67.19;102028.03;5052477;28;20072;-74
2021/03/06 02:20:47;;;;;;;8.73;6.68;;;;;;;-2.06;67.21;102030.97;5053077;28;20065;-74
2021/03/06 02:23:50;;;;;;;11.32;7.07;;;;;;;-2.09;67.55;102023.16;5053100;28;20052;-74
2021/03/06 02:26:33;;;;;;;8.25;6.38;;;;;;;-2.12;67.91;102022.69;5050090;28;20049;-74
2021/03/06 02:29:15;;;;;;;9.30;6.05;;;;;;;-2.19;67.86;102022.59;5013255;28;20054;-73
2021/03/06 02:31:48;;;;;;;10.13;6.72;;;;;;;-2.30;68.10;102020.38;5013099;28;20057;-73
2021/03/06 02:34:17;;;;;;;8.77;6.57;;;;;;;-2.37;68.56;102027.63;5014235;28;20054;-74
2021/03/06 02:36:51;;;;;;;9.73;6.50;;;;;;;-2.37;69.19;102028.47;5012483;28;20061;-74
2021/03/06 02:39:21;;;;;;;11.73;6.90;;;;;;;-2.40;68.59;102022.56;5012765;28;20049;-74
2021/03/06 02:41:50;;;;;;;9.48;6.57;;;;;;;-2.42;68.33;102019.16;5012476;28;20121;-74
2021/03/06 02:44:19;;;;;;;9.75;6.80;;;;;;;-2.46;68.22;102019.56;5013380;28;20539;-74
2021/03/06 02:46:47;;;;;;;10.73;7.65;;;;;;;-2.45;68.20;102021.25;5012948;28;20053;-74
2021/03/06 02:49:14;;;;;;;11.48;7.43;;;;;;;-2.46;68.13;102025.03;4994438;28;20054;-73
2021/03/06 02:51:47;;;;;;;10.70;7.22;;;;;;;-2.49;68.58;102028.09;5004135;28;20073;-74
2021/03/06 02:54:13;;;;;;;9.95;7.88;;;;;;;-2.47;68.15;102027.94;5012871;28;20046;-74
2021/03/06 02:56:41;;;;;;;12.02;7.38;;;;;;;-2.51;68.68;102022.00;5004415;28;20065;-74
2021/03/06 02:59:20;;;;;;;12.10;7.22;;;;;;;-2.46;68.01;102033.19;5012010;28;20042;-74
2021/03/06 03:01:59;;;;;;;10.57;7.70;;;;;;;-2.44;68.27;102027.53;5012365;28;20046;-74
2021/03/06 03:04:34;;;;;;;10.63;7.55;;;;;;;-2.46;68.18;102029.59;5013477;28;20461;-74
2021/03/06 03:07:08;;;;;;;12.25;7.70;;;;;;;-2.43;68.13;102028.41;5005763;28;20057;-74
2021/03/06 03:09:40;;;;;;;9.80;7.00;;;;;;;-2.45;68.11;102029.41;5013598;28;20479;-74
2021/03/06 03:12:12;;;;;;;12.48;7.72;;;;;;;-2.44;68.35;102027.53;4998416;28;20055;-73
2021/03/06 03:14:46;;;;;;;11.10;8.50;;;;;;;-2.43;67.96;102028.41;4993515;28;20054;-74
2021/03/06 03:17:21;;;;;;;12.30;7.97;;;;;;;-2.41;68.14;102027.16;5007160;28;20054;-74
2021/03/06 03:19:56;;;;;;;16.05;8.93;;;;;;;-2.40;68.47;102025.28;5012226;28;20521;-74
2021/03/06 03:22:26;;;;;;;10.30;7.53;;;;;;;-2.46;68.55;102025.03;5012626;28;20045;-74
2021/03/06 03:24:53;;;;;;;;;;;;;;;-2.50;68.58;102025.56;5012958;28;20065;-74
2021/03/06 03:27:21;;;;;;;14.40;7.80;;;;;;;-2.50;68.09;102023.69;5027836;28;20350;-74
2021/03/06 03:29:49;;;;;;;12.35;7.85;;;;;;;-2.51;67.88;102027.44;5051261;28;20068;-74
2021/03/06 03:32:18;;;;;;;11.25;7.72;;;;;;;-2.51;68.25;102027.44;5049457;28;20049;-74
2021/03/06 03:34:46;;;;;;;11.05;7.90;;;;;;;-2.55;68.70;102028.88;5051821;28;20060;-74
2021/03/06 03:37:14;;;;;;;11.15;7.72;;;;;;;-2.49;68.73;102038.19;5050437;28;20041;-74
2021/03/06 03:39:44;;;;;;;9.82;7.65;;;;;;;-2.50;69.01;102036.47;5051681;28;20410;-73
2021/03/06 03:42:13;;;;;;;;;;;;;;;-2.48;69.15;102031.69;5052379;28;20053;-73
2021/03/06 03:44:41;;;;;;;10.70;7.65;;;;;;;-2.52;69.11;102035.81;5053096;28;19936;-74
2021/03/06 03:47:08;;;;;;;12.80;7.82;;;;;;;-2.47;69.30;102038.84;5053383;28;20049;-74
2021/03/06 03:49:36;;;;;;;11.00;7.88;;;;;;;-2.45;69.45;102026.69;5055663;28;20494;-74
2021/03/06 03:52:03;;;;;;;10.75;7.50;;;;;;;-2.40;68.82;102033.47;5056245;28;20396;-74
2021/03/06 03:54:30;;;;;;;12.23;7.43;;;;;;;-2.37;68.80;102033.06;5056470;28;20060;-74
2021/03/06 03:56:57;;;;;;;10.90;7.60;;;;;;;-2.36;68.88;102026.59;5057233;28;20056;-74
2021/03/06 03:59:24;;;;;;;11.52;7.30;;;;;;;-2.37;69.13;102023.03;5057035;28;20147;-74
2021/03/06 04:01:51;;;;;;;11.90;7.57;;;;;;;-2.36;69.07;102026.59;5056082;28;20045;-74
2021/03/06 04:04:28;;;;;;;12.63;7.65;;;;;;;-2.40;68.83;102028.84;5055838;28;20060;-74
2021/03/06 04:06:57;;;;;;;12.63;7.90;;;;;;;-2.36;68.61;102030.16;5044880;28;20053;-74
2021/03/06 04:09:25;;;;;;;9.73;7.05;;;;;;;-2.36;68.80;102034.78;5043499;28;20056;-74
2021/03/06 04:11:52;;;;;;;11.95;6.68;;;;;;;-2.37;68.56;102033.94;5046037;28;20060;-74
2021/03/06 04:14:19;;;;;;;10.57;7.30;;;;;;;-2.37;68.48;102038.53;5057386;28;20049;-74
2021/03/06 04:16:46;;;;;;;10.70;7.25;;;;;;;-2.36;68.03;102037.50;5056905;28;20060;-74
2021/03/06 04:19:16;;;;;;;11.73;7.43;;;;;;;-2.35;67.40;102033.72;5057455;28;20056;-74
2021/03/06 04:21:43;;;;;;;13.90;7.22;;;;;;;-2.39;67.85;102033.28;5056718;28;20060;-74
2021/03/06 04:24:11;;;;;;;10.35;6.95;;;;;;;-2.34;68.04;102043.63;5054628;28;20057;-74
2021/03/06 04:26:38;;;;;;;14.85;7.43;;;;;;;-2.29;68.20;102046.63;5050249;28;20049;-74
2021/03/06 04:29:04;;;;;;;10.80;6.90;;;;;;;-2.21;68.41;102042.94;5057481;28;20049;-74
2021/03/06 04:31:31;;;;;;;10.93;7.30;;;;;;;-2.12;67.19;102045.38;5055928;28;20068;-74
2021/03/06 04:33:58;;;;;;;10.43;7.32;;;;;;;-2.03;67.00;102045.28;5057337;28;20045;-74
2021/03/06 04:36:25;;;;;;;11.02;6.97;;;;;;;-1.96;67.10;102048.91;5055943;28;20060;-74
2021/03/06 04:38:52;;;;;;;9.60;6.82;;;;;;;-1.90;66.33;102050.88;5054233;28;20056;-74
2021/03/06 04:41:20;;;;;;;10.80;6.75;;;;;;;-1.87;65.71;102050.47;5049231;28;20163;-74
2021/03/06 04:43:47;;;;;;;10.52;7.10;;;;;;;-1.88;65.78;102052.38;5047219;28;20434;-74
2021/03/06 04:46:13;;;;;;;9.25;6.28;;;;;;;-1.87;65.37;102054.06;5039290;28;20063;-74
2021/03/06 04:48:40;;;;;;;9.35;6.70;;;;;;;-1.82;65.46;102049.91;5055710;28;20064;-74
2021/03/06 04:51:07;;;;;;;10.35;6.70;;;;;;;-1.81;65.33;102066.09;5054064;28;20057;-74
2021/03/06 04:53:34;;;;;;;10.27;7.30;;;;;;;-1.84;65.62;102056.41;5054869;28;20478;-74
2021/03/06 04:56:01;;;;;;;9.18;7.00;;;;;;;-1.83;64.93;102054.50;5036353;28;20542;-74
2021/03/06 04:58:31;;;;;;;10.55;7.05;;;;;;;-1.82;65.43;102048.03;5034031;28;20057;-74
2021/03/06 05:00:57;;;;;;;;;;;;;;;-1.82;65.06;102050.75;5048195;28;20049;-74
2021/03/06 05:03:24;;;;;;;9.85;7.03;;;;;;;-1.89;64.92;102050.69;5047962;28;20262;-74
2021/03/06 05:05:51;;;;;;;10.40;7.38;;;;;;;-1.92;65.08;102045.59;5053198;28;20053;-74
2021/03/06 05:08:18;;;;;;;9.05;6.57;;;;;;;-1.96;65.05;102055.22;5055363;28;20045;-74
2021/03/06 05:10:45;;;;;;;11.70;7.30;;;;;;;-2.03;65.16;102053.47;5054587;28;20049;-74
2021/03/06 05:13:12;;;;;;;9.20;6.95;;;;;;;-2.11;65.74;102055.25;5053085;28;20053;-74
2021/03/06 05:15:42;;;;;;;13.20;7.13;;;;;;;-2.19;66.36;102052.63;5054291;28;20048;-74
2021/03/06 05:18:09;;;;;;;12.18;8.07;;;;;;;-2.19;66.04;102052.63;5055079;28;20045;-74
2021/03/06 05:20:36;;;;;;;13.15;7.38;;;;;;;-2.22;66.04;102054.91;5051443;28;20065;-74
2021/03/06 05:23:02;;;;;;;12.73;7.32;;;;;;;-2.26;66.33;102058.00;5039777;28;20055;-74
2021/03/06 05:25:29;;;;;;;11.13;7.10;;;;;;;-2.27;65.98;102055.47;5054707;28;20060;-74
2021/03/06 05:27:56;;;;;;;11.00;7.43;;;;;;;-2.34;66.05;102070.91;5054422;28;20056;-74
2021/03/06 05:30:24;;;;;;;10.57;7.60;;;;;;;-2.36;65.98;102062.06;5054157;28;20059;-74
2021/03/06 05:32:51;;;;;;;10.93;6.95;;;;;;;-2.41;66.31;102065.38;5035729;28;20053;-74
2021/03/06 05:35:19;;;;;;;11.50;7.10;;;;;;;-2.43;66.35;102066.59;5035535;28;20455;-74
2021/03/06 05:37:45;;;;;;;16.15;7.90;;;;;;;-2.51;66.57;102060.19;5052388;28;20053;-74
2021/03/06 05:40:13;;;;;;;10.93;7.50;;;;;;;-2.57;66.60;102065.56;5055084;28;20060;-74
2021/03/06 05:42:41;;;;;;;10.27;7.00;;;;;;;-2.58;66.43;102078.34;5054666;28;20061;-74
2021/03/06 05:45:09;;;;;;;9.85;7.25;;;;;;;-2.58;66.63;102074.75;5053745;28;20057;-74
2021/03/06 05:47:36;;;;;;;12.52;7.65;;;;;;;-2.64;66.74;102070.09;5055291;28;20063;-74
2021/03/06 05:50:06;;;;;;;10.88;7.20;;;;;;;-2.64;66.29;102064.63;5054215;28;20057;-74
2021/03/06 05:52:36;;;;;;;9.98;7.55;;;;;;;-2.74;66.66;102065.72;5054244;28;20049;-74
2021/03/06 05:55:04;;;;;;;11.57;7.25;;;;;;;-2.80;67.01;102066.47;5040014;28;20057;-74
2021/03/06 05:57:31;;;;;;;11.57;6.75;;;;;;;-2.78;66.92;102064.41;5038964;28;20049;-74
2021/03/06 05:59:57;;;;;;;9.65;7.13;;;;;;;-2.76;67.16;102058.78;5052967;28;20387;-74
2021/03/06 06:02:25;;;;;;;10.85;7.03;;;;;;;-2.77;67.29;102060.66;5053861;28;20045;-74
2021/03/06 06:04:52;;;;;;;12.35;7.57;;;;;;;-2.74;66.83;102062.16;5054745;28;20057;-74
2021/03/06 06:07:21;;;;;;;9.93;7.10;;;;;;;-2.75;66.90;102066.78;5054562;28;20512;-74
2021/03/06 06:09:48;;;;;;;10.95;7.57;;;;;;;-2.73;67.11;102061.97;5054345;28;20056;-74
2021/03/06 06:12:15;;;;;;;11.32;7.28;;;;;;;-2.71;67.55;102061.78;5054469;28;20062;-74
2021/03/06 06:14:42;;;;;;;12.13;7.47;;;;;;;-2.73;67.34;102061.97;5054454;28;20068;-73
2021/03/06 06:17:10;;;;;;;13.98;9.48;;;;;;;-2.67;67.61;102063.09;5052770;28;20049;-74
2021/03/06 06:19:38;;;;;;;11.20;7.88;;;;;;;-2.64;67.47;102060.00;5055254;28;20060;-74
2021/03/06 06:22:16;;;;;;;11.85;8.30;;;;;;;-2.59;67.34;102070.34;5054292;28;20049;-74
2021/03/06 06:24:44;;;;;;;12.73;7.10;;;;;;;-2.53;67.17;102067.72;5054066;28;20056;-74
2021/03/06 06:27:12;;;;;;;12.95;8.02;;;;;;;-2.50;66.73;102070.09;5045807;28;20056;-74
2021/03/06 06:29:41;;;;;;;12.32;7.85;;;;;;;-2.46;67.22;102079.59;5053712;28;20049;-73
2021/03/06 06:32:09;;;;;;;12.93;8.35;;;;;;;-2.40;67.81;102083.41;5053293;28;20053;-74
2021/03/06 06:34:37;;;;;;;10.88;7.38;;;;;;;-2.35;67.27;102080.13;5055128;28;20067;-74
2021/03/06 06:37:09;;;;;;;10.10;7.57;;;;;;;-2.32;66.87;102085.22;5052660;28;20053;-74
2021/03/06 06:39:35;;;;;;;10.73;7.18;;;;;;;-2.15;66.55;102086.69;5054123;28;20142;-74
2021/03/06 06:42:04;;;;;;;10.75;6.82;;;;;;;-1.49;65.24;102088.50;5051699;28;20055;-74
2021/03/06 06:44:32;;;;;;;9.57;6.10;;;;;;;-0.53;63.04;102080.66;5053378;28;20460;-74
2021/03/06 06:47:10;;;;;;;6.40;5.18;;;;;;;0.44;60.30;102083.41;5052563;28;20063;-74
2021/03/06 06:49:43;;;;;;;6.70;4.93;;;;;;;1.22;57.77;102089.19;5052634;28;20402;-74
2021/03/06 06:52:10;;;;;;;10.18;4.97;;;;;;;1.84;55.74;102092.44;5052914;28;20064;-74
2021/03/06 06:54:37;;;;;;;7.05;5.43;;;;;;;2.39;54.42;102092.84;5047823;28;20060;-74
2021/03/06 06:57:10;;;;;;;8.13;4.75;;;;;;;3.30;51.88;102098.09;5047016;28;20410;-74
2021/03/06 06:59:37;;;;;;;6.95;5.47;;;;;;;3.99;49.62;102091.47;5039730;28;20356;-74
2021/03/06 07:02:06;;;;;;;8.10;5.28;;;;;;;4.72;47.50;102089.63;5043758;28;20049;-74
2021/03/06 07:04:50;;;;;;;7.47;4.75;;;;;;;5.55;45.27;102089.75;5045566;28;20502;-74
2021/03/06 07:07:18;;;;;;;7.63;5.03;;;;;;;6.11;44.28;102085.50;5047752;28;20045;-74
2021/03/06 07:10:05;;;;;;;7.90;5.22;;;;;;;6.82;42.12;102091.53;5048321;28;20064;-74
2021/03/06 07:12:35;;;;;;;6.75;4.95;;;;;;;7.45;40.99;102080.41;5047937;28;20060;-74
2021/03/06 07:15:02;;;;;;;7.68;4.55;;;;;;;8.22;39.90;102079.50;5042218;28;20061;-74
2021/03/06 07:17:40;;;;;;;6.50;4.82;;;;;;;9.00;37.29;102082.03;5042810;28;20045;-74
2021/03/06 07:20:10;;;;;;;7.82;4.93;;;;;;;9.79;35.80;102074.00;5044663;28;20049;-74
2021/03/06 07:22:37;;;;;;;7.28;5.00;;;;;;;10.18;34.51;102076.38;5047077;28;20046;-74
2021/03/06 07:25:05;;;;;;;6.70;4.90;;;;;;;10.69;34.03;102076.59;5046741;28;20049;-75
2021/03/06 07:27:33;;;;;;;10.73;5.05;;;;;;;11.14;33.17;102075.78;5047940;28;20065;-75
2021/03/06 07:29:59;;;;;;;7.38;5.45;;;;;;;11.64;31.84;102070.44;5045672;28;20045;-74
2021/03/06 07:32:32;;;;;;;9.43;6.45;;;;;;;12.07;30.69;102065.28;5048887;28;20037;-75
2021/03/06 07:35:03;;;;;;;9.00;6.32;;;;;;;12.85;29.01;102066.56;5056352;28;20053;-75
2021/03/06 07:37:32;;;;;;;9.55;5.63;;;;;;;13.26;29.80;102074.59;5049555;28;20053;-75
2021/03/06 07:40:00;;;;;;;7.82;5.63;;;;;;;14.31;27.27;102069.28;5051696;28;20072;-74
2021/03/06 07:42:45;;;;;;;7.85;5.00;;;;;;;14.94;25.77;102065.31;5041486;28;20502;-77
2021/03/06 07:45:15;;;;;;;6.70;5.40;;;;;;;15.75;25.00;102067.03;5036598;28;20057;-75
2021/03/06 07:47:44;;;;;;;8.05;5.05;;;;;;;16.37;24.20;102077.81;5048943;28;20057;-75
2021/03/06 07:50:19;;;;;;;6.45;5.38;;;;;;;17.17;22.62;102078.22;5053900;28;20048;-75
2021/03/06 07:52:46;;;;;;;8.50;5.65;;;;;;;18.15;21.54;102074.47;5054471;28;20045;-75
2021/03/06 07:55:15;;;;;;;8.15;5.22;;;;;;;18.74;20.45;102071.25;5045534;28;20053;-75
2021/03/06 07:58:16;;;;;;;9.40;5.32;;;;;;;18.93;20.04;102087.91;5045281;28;20417;-75
2021/03/06 08:00:48;;;;;;;7.78;5.53;;;;;;;19.32;19.52;102076.72;5010576;28;20137;-75
2021/03/06 08:03:37;;;;;;;6.68;5.38;;;;;;;19.53;19.22;102082.50;5023635;28;20514;-75
2021/03/06 08:06:06;;;;;;;7.40;5.28;;;;;;;19.38;19.48;102092.34;5045275;28;20053;-75
2021/03/06 08:09:10;;;;;;;8.70;6.10;;;;;;;19.89;18.66;102095.41;5054773;28;20060;-75
2021/03/06 08:11:48;;;;;;;8.82;6.10;;;;;;;19.81;19.12;102099.94;5053698;28;20053;-75
2021/03/06 08:14:42;;;;;;;6.10;5.45;;;;;;;19.77;18.84;102098.94;5054067;28;20057;-75
2021/03/06 08:17:36;;;;;;;9.52;5.60;;;;;;;19.59;19.24;102086.81;5054965;28;20254;-75
2021/03/06 08:20:06;;;;;;;7.82;5.25;;;;;;;20.07;19.03;102096.97;5049263;28;20437;-75
2021/03/06 08:22:33;;;;;;;6.78;5.72;;;;;;;21.02;17.65;102092.75;5055294;28;20060;-76
2021/03/06 08:25:19;;;;;;;7.43;5.70;;;;;;;22.02;16.58;102089.03;5048803;28;20045;-75
2021/03/06 08:28:27;;;;;;;7.53;5.68;;;;;;;22.35;16.69;102085.28;5047493;28;20064;-75
2021/03/06 08:30:55;;;;;;;7.53;5.28;;;;;;;22.91;16.35;102082.56;5048369;28;20060;-75
2021/03/06 08:33:22;;;;;;;7.03;5.50;;;;;;;23.34;15.93;102075.31;5052591;28;20052;-75
2021/03/06 08:35:49;;;;;;;7.25;5.53;;;;;;;23.88;15.41;102071.91;5053866;28;20537;-75
2021/03/06 08:38:28;;;;;;;6.90;5.85;;;;;;;24.42;14.82;102080.94;5053289;28;20478;-75
2021/03/06 08:40:56;;;;;;;9.35;5.97;;;;;;;24.40;15.20;102087.03;5043443;28;20513;-75
2021/03/06 08:43:23;;;;;;;7.28;5.75;;;;;;;24.93;14.07;102083.78;5043474;28;20490;-76
2021/03/06 08:45:50;;;;;;;7.80;5.50;;;;;;;25.29;14.55;102082.50;5051165;28;20110;-76
2021/03/06 08:48:23;;;;;;;6.45;5.72;;;;;;;25.54;14.04;102081.38;5046362;28;20478;-76
2021/03/06 08:50:51;;;;;;;7.57;5.78;;;;;;;25.91;13.77;102073.91;5048687;28;20053;-76
2021/03/06 08:53:18;;;;;;;7.43;5.82;;;;;;;26.20;13.46;102077.22;5043727;28;20060;-76
2021/03/06 08:55:46;;;;;;;8.02;5.47;;;;;;;26.72;12.84;102081.31;5049836;28;20057;-75
2021/03/06 08:58:14;;;;;;;6.43;4.82;;;;;;;27.25;12.64;102073.84;5051749;28;20049;-76
2021/03/06 09:00:47;;;;;;;7.55;5.60;;;;;;;27.68;12.49;102078.00;5054063;28;20045;-75
2021/03/06 09:03:16;;;;;;;6.22;5.10;;;;;;;27.61;12.54;102077.09;5051823;28;20052;-74
2021/03/06 09:05:46;;;;;;;8.65;5.93;;;;;;;27.73;12.58;102069.03;5052165;28;20049;-73
2021/03/06 09:08:13;;;;;;;5.80;5.20;;;;;;;28.33;11.78;102073.66;5050993;28;20052;-75
2021/03/06 09:10:42;;;;;;;6.95;5.75;;;;;;;28.49;12.07;102081.16;5051137;28;20502;-74
2021/03/06 09:13:14;;;;;;;6.80;5.93;;;;;;;29.08;11.51;102076.16;5050643;28;20064;-75
2021/03/06 09:15:46;;;;;;;6.90;5.13;;;;;;;29.37;11.24;102073.38;5034473;28;20402;-75
2021/03/06 09:18:18;;;;;;;7.18;5.53;;;;;;;29.51;10.88;102073.41;5040968;28;20048;-74
2021/03/06 09:20:52;;;;;;;6.15;4.72;;;;;;;30.20;10.50;102080.06;5052102;28;20053;-74
2021/03/06 09:23:27;;;;;;;6.57;5.07;;;;;;;30.23;10.10;102079.22;5051713;28;20045;-74
2021/03/06 09:25:54;;;;;;;6.07;4.72;;;;;;;30.12;10.63;102076.38;5051588;28;20604;-74
2021/03/06 09:28:26;;;;;;;5.68;4.70;;;;;;;29.84;10.87;102087.84;5053286;28;20052;-75
2021/03/06 09:30:54;;;;;;;7.93;4.90;;;;;;;29.91;10.94;102085.81;5054047;28;20064;-74
2021/03/06 09:33:25;;;;;;;5.20;4.70;;;;;;;30.33;10.38;102083.38;5053499;28;20482;-74
2021/03/06 09:36:04;;;;;;;5.05;4.22;;;;;;;30.99;9.85;102085.66;5052920;28;20056;-75
2021/03/06 09:38:31;;;;;;;7.43;4.43;;;;;;;30.82;9.94;102083.66;5051288;28;20049;-75
2021/03/06 09:40:59;;;;;;;7.95;4.53;;;;;;;30.94;9.83;102091.88;5052880;28;20050;-75
2021/03/06 09:43:29;;;;;;;7.60;4.75;;;;;;;31.45;9.72;102086.72;5051151;28;20045;-75
2021/03/06 09:45:58;;;;;;;6.05;4.35;;;;;;;32.46;8.82;102086.72;5039315;28;20064;-75
2021/03/06 09:48:26;;;;;;;4.75;3.65;;;;;;;32.42;8.82;102083.88;5043439;28;20056;-74
2021/03/06 09:50:56;;;;;;;4.60;3.88;;;;;;;33.04;8.35;102084.03;5053811;28;20056;-75
2021/03/06 09:53:24;;;;;;;5.55;3.50;;;;;;;33.19;7.85;102082.63;5048557;28;20045;-75
2021/03/06 09:56:10;;;;;;;5.10;3.45;;;;;;;33.59;7.49;102090.72;5051901;28;20045;-75
2021/03/06 09:58:38;;;;;;;5.82;3.90;;;;;;;34.10;7.84;102080.00;5048723;28;20076;-75
2021/03/06 10:01:19;;;;;;;6.68;3.70;;;;;;;34.46;7.33;102091.78;5047941;28;20060;-74
2021/03/06 10:03:47;;;;;;;5.05;3.67;;;;;;;35.21;7.11;102085.75;5046663;28;20418;-75
2021/03/06 10:06:18;;;;;;;5.68;3.70;;;;;;;35.81;6.40;102092.22;5051074;28;20061;-75
2021/03/06 10:08:55;;;;;;;4.63;3.80;;;;;;;36.28;6.53;102091.06;5038058;28;20052;-75
2021/03/06 10:11:31;;;;;;;6.50;4.43;;;;;;;36.03;6.70;102086.69;5039153;28;20044;-75
2021/03/06 10:13:59;;;;;;;6.07;4.40;;;;;;;35.39;6.55;102080.38;5049180;28;20410;-75
2021/03/06 10:16:29;;;;;;;6.43;4.43;;;;;;;35.25;6.84;102087.28;5035037;28;20426;-75
2021/03/06 10:19:01;;;;;;;7.00;3.80;;;;;;;35.95;6.32;102086.06;5041562;28;20060;-76
2021/03/06 10:21:31;;;;;;;5.88;3.70;;;;;;;36.16;6.55;102078.09;5049159;28;20493;-75
2021/03/06 10:24:02;;;;;;;7.28;3.83;;;;;;;35.38;6.71;102075.81;5047885;28;20045;-75
2021/03/06 10:26:30;;;;;;;5.22;3.40;;;;;;;35.07;6.94;102072.34;5047433;28;20051;-74
2021/03/06 10:28:58;;;;;;;4.78;3.08;;;;;;;35.19;7.01;102068.00;5050793;28;20052;-75
2021/03/06 10:31:36;;;;;;;7.22;3.40;;;;;;;34.95;7.21;102068.88;5049980;28;20049;-76
2021/03/06 10:34:18;;;;;;;5.50;3.70;;;;;;;36.04;6.92;102073.81;5042680;28;20402;-75
2021/03/06 10:37:05;;;;;;;4.93;3.00;;;;;;;36.32;6.64;102056.94;5053203;28;20056;-74
2021/03/06 10:39:32;;;;;;;6.72;2.78;;;;;;;35.72;6.61;102060.97;5052923;28;20057;-74
2021/03/06 10:42:00;;;;;;;5.20;2.60;;;;;;;35.19;7.19;102068.00;5053529;28;20076;-74
2021/03/06 10:44:39;;;;;;;6.50;3.13;;;;;;;35.29;6.88;102064.03;5052866;28;20052;-74
2021/03/06 10:47:06;;;;;;;7.88;3.50;;;;;;;35.53;6.67;102068.44;5052869;28;20048;-75
2021/03/06 10:49:37;;;;;;;5.45;2.75;;;;;;;36.10;6.02;102068.28;5047115;28;20072;-74
2021/03/06 10:52:10;;;;;;;5.15;2.80;;;;;;;35.95;6.43;102067.84;5052484;28;20056;-74
2021/03/06 10:54:48;;;;;;;5.75;3.35;;;;;;;36.23;6.14;102063.41;5053244;28;20056;-74
2021/03/06 10:57:16;;;;;;;4.93;3.05;;;;;;;36.83;6.20;102059.25;5041102;28;20060;-74
2021/03/06 10:59:43;;;;;;;5.20;2.50;;;;;;;33.70;7.40;102065.38;5051990;28;20053;-74
2021/03/06 11:02:24;;;;;;;4.07;2.72;;;;;;;32.20;8.76;102059.41;5052752;28;20068;-74
2021/03/06 11:04:51;;;;;;;5.18;3.00;;;;;;;34.36;7.12;102058.88;5052671;28;20052;-74
2021/03/06 11:07:31;;;;;;;6.03;3.13;;;;;;;35.08;6.77;102051.63;5052750;28;20064;-74
2021/03/06 11:09:59;;;;;;;5.82;3.13;;;;;;;35.89;6.46;102055.16;5040082;28;20061;-74
2021/03/06 11:12:30;;;;;;;6.13;3.00;;;;;;;35.47;6.30;102049.97;5034420;28;20061;-75
2021/03/06 11:15:12;;;;;;;6.15;2.60;;;;;;;30.74;9.14;102051.19;5034204;28;20045;-74
2021/03/06 11:17:40;;;;;;;5.60;3.13;;;;;;;28.45;11.12;102049.56;5033735;28;20415;-74
2021/03/06 11:20:09;;;;;;;5.57;3.92;;;;;;;32.50;8.30;102033.50;5039699;28;20386;-74
2021/03/06 11:22:37;;;;;;;7.38;3.80;;;;;;;34.85;7.56;102034.38;5049950;28;20053;-74
2021/03/06 11:25:05;;;;;;;6.32;3.42;;;;;;;35.85;6.59;102022.56;5045027;28;20060;-73
2021/03/06 11:27:42;;;;;;;6.57;3.00;;;;;;;32.61;7.75;102032.59;5053261;28;20063;-73
2021/03/06 11:30:11;;;;;;;7.05;4.20;;;;;;;30.12;9.12;102026.69;5052284;28;20053;-73
2021/03/06 11:32:38;;;;;;;6.20;2.88;;;;;;;28.72;10.75;102027.22;5052887;28;20148;-73
2021/03/06 11:35:07;;;;;;;6.50;2.70;;;;;;;26.96;11.34;102030.56;5051864;28;20060;-73
2021/03/06 11:37:34;;;;;;;6.57;3.25;;;;;;;26.69;11.74;102016.34;5052387;28;20060;-72
2021/03/06 11:40:02;;;;;;;8.75;4.15;;;;;;;30.69;9.19;102020.81;5052186;28;20052;-73